Time;durP1;ratioP1;P1;durP2;ratioP2;P2;SDS_P1;SDS_P2;PMS_P1;PMS_P2;Temp;Humidity;BMP_temperature;BMP_pressure;BME280_temperature;BME280_humidity;BME280_pressure;Samples;Min_cycle;Max_cycle;Signal;HPM_P1;HPM_P2
2022/04/13 00:00:06;;;;;;;0.70;0.70;;;12.50;67.70;11.70;97948.00;;;;5115618;28;20204;-78
2022/04/13 00:02:33;;;;;;;0.60;0.60;;;12.40;67.10;11.60;97932.00;;;;5115313;28;20225;-77
2022/04/13 00:05:00;;;;;;;1.10;1.10;;;12.30;67.50;11.50;97939.00;;;;5115357;28;20302;-78
2022/04/13 00:07:29;;;;;;;1.10;1.10;;;12.30;67.40;11.60;97940.00;;;;5115399;28;20193;-78
2022/04/13 00:09:58;;;;;;;0.80;0.80;;;12.30;67.60;11.60;97928.00;;;;5115394;28;20225;-77
2022/04/13 00:12:24;;;;;;;1.30;1.20;;;12.30;67.50;11.70;97935.00;;;;5115579;28;20505;-78
2022/04/13 00:14:51;;;;;;;0.60;0.60;;;12.30;67.60;11.60;97934.00;;;;5097367;28;20206;-78
2022/04/13 00:17:18;;;;;;;0.83;0.83;;;12.20;67.80;11.60;97940.00;;;;5114506;28;20293;-78
2022/04/13 00:19:47;;;;;;;0.67;0.67;;;12.30;68.00;11.70;97941.00;;;;5115078;28;20216;-77
2022/04/13 00:22:13;;;;;;;1.10;1.10;;;12.30;68.10;11.60;97932.00;;;;5115000;28;20668;-78
2022/04/13 00:24:42;;;;;;;0.80;0.80;;;12.20;67.90;11.60;97938.00;;;;5116927;28;20228;-78
2022/04/13 00:27:08;;;;;;;1.33;1.23;;;12.20;68.00;11.60;97927.00;;;;5115531;28;20689;-78
2022/04/13 00:29:35;;;;;;;0.67;0.67;;;12.20;68.50;11.60;97942.00;;;;5115533;28;20277;-77
2022/04/13 00:32:03;;;;;;;1.03;1.03;;;12.30;68.70;11.70;97941.00;;;;5122406;28;20209;-76
2022/04/13 00:34:30;;;;;;;1.43;1.33;;;12.20;68.50;11.70;97947.00;;;;5101499;28;20206;-78
2022/04/13 00:36:57;;;;;;;0.83;0.83;;;12.30;68.40;11.50;97945.00;;;;5114980;28;20197;-78
2022/04/13 00:39:27;;;;;;;1.10;1.10;;;12.20;67.80;11.50;97948.00;;;;5114783;28;20212;-77
2022/04/13 00:41:57;;;;;;;1.07;1.07;;;12.20;67.80;11.60;97945.00;;;;5096671;28;20257;-79
2022/04/13 00:44:26;;;;;;;3.57;1.77;;;12.20;68.30;11.60;97946.00;;;;5114639;28;20253;-78
2022/04/13 00:46:55;;;;;;;1.10;1.10;;;12.20;68.40;11.40;97936.00;;;;5114687;28;20738;-77
2022/04/13 00:49:25;;;;;;;1.93;1.83;;;12.20;68.70;11.50;97934.00;;;;5114608;28;20229;-79
2022/04/13 00:51:52;;;;;;;0.83;0.83;;;12.20;68.80;11.50;97931.00;;;;5096766;28;20641;-79
2022/04/13 00:54:25;;;;;;;1.13;1.13;;;12.20;69.00;11.50;97942.00;;;;5114577;28;20198;-78
2022/04/13 00:56:55;;;;;;;1.17;1.17;;;12.10;70.20;11.50;97949.00;;;;5114514;28;20209;-78
2022/04/13 00:59:25;;;;;;;1.53;1.43;;;12.20;69.90;11.50;97959.00;;;;5114482;28;20194;-78
2022/04/13 01:01:56;;;;;;;0.80;0.80;;;12.10;71.00;11.40;97946.00;;;;5113662;28;20229;-77
2022/04/13 01:04:29;;;;;;;0.60;0.60;;;12.10;70.30;11.50;97945.00;;;;5114630;28;20237;-78
2022/04/13 01:06:55;;;;;;;0.80;0.80;;;12.10;69.80;11.30;97957.00;;;;5096555;28;20205;-78
2022/04/13 01:09:26;;;;;;;1.13;1.10;;;12.00;68.80;11.20;97964.00;;;;5114434;28;20221;-76
2022/04/13 01:11:52;;;;;;;0.60;0.60;;;11.90;69.30;11.10;97964.00;;;;5114615;28;20202;-79
2022/04/13 01:14:19;;;;;;;0.60;0.60;;;11.90;69.40;11.10;97974.00;;;;5114481;28;20525;-77
2022/04/13 01:16:45;;;;;;;1.80;1.17;;;11.80;69.80;11.10;97959.00;;;;5096468;28;20208;-76
2022/04/13 01:19:14;;;;;;;0.70;0.70;;;11.80;69.80;11.10;97972.00;;;;5096251;28;20566;-77
2022/04/13 01:21:47;;;;;;;1.47;1.40;;;11.80;70.10;11.10;97965.00;;;;5114209;28;20213;-76
2022/04/13 01:24:16;;;;;;;0.80;0.80;;;11.80;70.20;11.20;97940.00;;;;5096527;28;20234;-77
2022/04/13 01:26:46;;;;;;;1.00;1.00;;;11.80;70.30;11.20;97977.00;;;;5115011;28;20504;-78
2022/04/13 01:29:13;;;;;;;0.70;0.70;;;11.80;70.10;11.10;97970.00;;;;5115826;28;20308;-78
2022/04/13 01:31:43;;;;;;;0.93;0.93;;;11.70;69.90;11.00;97971.00;;;;5119006;28;20262;-78
2022/04/13 01:34:11;;;;;;;4.43;1.10;;;11.70;70.00;11.00;97962.00;;;;5123590;28;20214;-77
2022/04/13 01:36:39;;;;;;;0.60;0.60;;;11.70;70.30;11.00;97976.00;;;;5125567;28;20198;-78
2022/04/13 01:39:07;;;;;;;1.43;1.33;;;11.70;69.80;11.00;97975.00;;;;5119754;28;20272;-79
2022/04/13 01:41:34;;;;;;;0.67;0.67;;;11.70;70.00;11.00;97977.00;;;;5125495;28;20232;-79
2022/04/13 01:44:04;;;;;;;0.87;0.87;;;11.60;70.00;11.00;97987.00;;;;5129210;28;20214;-77
2022/04/13 01:46:30;;;;;;;0.93;0.87;;;11.60;70.00;10.90;97981.00;;;;5128053;28;20266;-78
2022/04/13 01:49:00;;;;;;;0.70;0.70;;;11.60;69.80;10.90;97977.00;;;;5121320;28;20748;-78
2022/04/13 01:51:26;;;;;;;0.93;0.93;;;11.60;70.00;10.90;97987.00;;;;5118574;28;20198;-77
2022/04/13 01:53:53;;;;;;;0.70;0.70;;;11.60;70.20;10.90;97987.00;;;;5117837;28;20251;-79
2022/04/13 01:56:19;;;;;;;0.53;0.53;;;11.60;70.40;11.00;97986.00;;;;5117583;28;20208;-77
2022/04/13 01:58:46;;;;;;;0.90;0.90;;;11.60;70.50;10.90;97987.00;;;;5117208;28;20247;-78
2022/04/13 02:01:13;;;;;;;2.03;1.90;;;11.60;70.60;10.90;97986.00;;;;5117051;28;20721;-78
2022/04/13 02:03:42;;;;;;;0.53;0.53;;;11.50;70.70;10.80;97989.00;;;;5117106;28;20595;-78
2022/04/13 02:06:11;;;;;;;1.43;1.37;;;11.50;70.80;10.70;97997.00;;;;5117151;28;20214;-78
2022/04/13 02:08:40;;;;;;;1.07;1.07;;;11.40;70.80;10.60;97988.00;;;;5099162;28;20244;-77
2022/04/13 02:11:06;;;;;;;1.80;1.70;;;11.30;70.70;10.60;97991.00;;;;5117166;28;20273;-76
2022/04/13 02:13:35;;;;;;;0.87;0.87;;;11.30;72.10;10.60;97992.00;;;;5117151;28;20194;-78
2022/04/13 02:16:02;;;;;;;0.67;0.67;;;11.30;71.20;10.50;98000.00;;;;5117346;28;20316;-78
2022/04/13 02:18:29;;;;;;;3.00;1.63;;;11.20;71.30;10.60;97995.00;;;;5116945;28;20190;-78
2022/04/13 02:20:55;;;;;;;0.87;0.87;;;11.20;71.80;10.30;98001.00;;;;5116942;28;20277;-77
2022/04/13 02:23:22;;;;;;;1.77;1.67;;;11.10;72.80;10.30;98001.00;;;;5116930;28;20304;-77
2022/04/13 02:25:48;;;;;;;0.83;0.83;;;11.00;72.90;10.30;98014.00;;;;5099105;28;20225;-78
2022/04/13 02:28:17;;;;;;;1.57;1.53;;;11.00;73.20;10.30;98003.00;;;;5116829;28;20256;-78
2022/04/13 02:30:44;;;;;;;0.70;0.70;;;11.00;73.70;10.30;98001.00;;;;5116844;28;20212;-78
2022/04/13 02:33:11;;;;;;;0.90;0.90;;;11.00;74.20;10.30;98004.00;;;;5116918;28;20585;-77
2022/04/13 02:35:38;;;;;;;1.37;1.27;;;11.00;74.50;10.30;97994.00;;;;5116690;28;20249;-77
2022/04/13 02:38:04;;;;;;;1.23;1.23;;;10.90;74.60;10.30;97994.00;;;;5117592;28;20517;-77
2022/04/13 02:40:31;;;;;;;0.77;0.77;;;10.90;74.60;10.20;98000.00;;;;5116814;28;20243;-78
2022/04/13 02:42:58;;;;;;;0.87;0.87;;;10.90;74.70;10.20;97998.00;;;;5116613;28;20198;-78
2022/04/13 02:45:24;;;;;;;0.70;0.70;;;10.80;75.20;10.20;98000.00;;;;5115809;28;20222;-78
2022/04/13 02:47:51;;;;;;;1.50;1.40;;;10.80;75.40;10.20;97997.00;;;;5116558;28;20303;-78
2022/04/13 02:50:18;;;;;;;0.73;0.73;;;10.80;75.30;10.10;98008.00;;;;5116515;28;20285;-77
2022/04/13 02:52:44;;;;;;;1.10;1.10;;;10.70;75.70;10.00;98012.00;;;;5098501;28;20254;-77
2022/04/13 02:55:13;;;;;;;1.70;1.60;;;10.70;75.60;10.00;98006.00;;;;5116479;28;20768;-78
2022/04/13 02:57:40;;;;;;;0.90;0.90;;;10.70;75.80;10.10;98005.00;;;;5116495;28;20206;-78
2022/04/13 03:00:08;;;;;;;1.57;1.47;;;10.70;76.00;10.00;98013.00;;;;5116237;28;20280;-78
2022/04/13 03:02:35;;;;;;;1.07;1.03;;;10.60;75.90;9.90;98007.00;;;;5098240;28;20317;-78
2022/04/13 03:05:01;;;;;;;5.73;1.33;;;10.60;76.00;9.90;98005.00;;;;5098326;28;20720;-78
2022/04/13 03:07:30;;;;;;;1.63;1.53;;;10.60;76.90;9.90;98011.00;;;;5116195;28;20194;-77
2022/04/13 03:09:59;;;;;;;0.70;0.70;;;10.50;77.00;9.80;98006.00;;;;5116284;28;20733;-78
2022/04/13 03:12:26;;;;;;;0.83;0.83;;;10.50;77.20;9.80;97994.00;;;;5116277;28;20229;-77
2022/04/13 03:14:53;;;;;;;0.67;0.67;;;10.50;76.90;9.80;98004.00;;;;5116113;28;20300;-78
2022/04/13 03:17:19;;;;;;;0.90;0.90;;;10.50;76.80;9.90;98006.00;;;;5098164;28;20206;-77
2022/04/13 03:19:46;;;;;;;1.13;1.13;;;10.50;77.00;9.80;98009.00;;;;5116085;28;20293;-77
2022/04/13 03:22:13;;;;;;;1.27;1.23;;;10.50;76.90;9.90;98006.00;;;;5115911;28;20242;-76
2022/04/13 03:24:40;;;;;;;1.47;1.43;;;10.50;77.20;9.80;98008.00;;;;5116004;28;20222;-78
2022/04/13 03:27:06;;;;;;;1.10;1.10;;;10.40;77.20;9.80;98008.00;;;;5097934;28;20206;-78
2022/04/13 03:29:33;;;;;;;0.83;0.83;;;10.40;77.80;9.80;98008.00;;;;5097919;28;20667;-78
2022/04/13 03:31:59;;;;;;;0.80;0.80;;;10.40;77.80;9.70;98009.00;;;;5115811;28;20208;-78
2022/04/13 03:34:26;;;;;;;0.90;0.90;;;10.40;77.80;9.70;98006.00;;;;5115967;28;20649;-77
2022/04/13 03:36:52;;;;;;;0.50;0.50;;;10.40;78.30;9.70;98009.00;;;;5115630;28;20202;-76
2022/04/13 03:39:19;;;;;;;0.83;0.83;;;10.40;78.20;9.70;97997.00;;;;5115916;28;20205;-78
2022/04/13 03:41:46;;;;;;;1.03;1.03;;;10.30;78.80;9.70;98009.00;;;;5097721;28;20227;-78
2022/04/13 03:44:14;;;;;;;0.73;0.73;;;10.30;78.80;9.50;98008.00;;;;5115532;28;20304;-77
2022/04/13 03:46:41;;;;;;;0.93;0.90;;;10.30;78.90;9.60;98006.00;;;;5097753;28;20202;-78
2022/04/13 03:49:08;;;;;;;0.93;0.93;;;10.30;79.20;9.60;98003.00;;;;5115343;28;20713;-77
2022/04/13 03:51:34;;;;;;;1.30;1.23;;;10.20;79.60;9.60;98005.00;;;;5114705;28;20201;-78
2022/04/13 03:54:01;;;;;;;0.80;0.80;;;10.20;79.50;9.50;98003.00;;;;5115502;28;20196;-77
2022/04/13 03:56:30;;;;;;;1.60;1.50;;;10.10;79.50;9.40;98009.00;;;;5115575;28;20213;-77
2022/04/13 03:58:58;;;;;;;2.30;1.20;;;10.10;79.70;9.40;98013.00;;;;5115261;28;20281;-77
2022/04/13 04:01:25;;;;;;;1.50;1.40;;;10.10;80.30;9.30;98017.00;;;;5115267;28;20217;-78
2022/04/13 04:03:54;;;;;;;1.67;1.57;;;10.10;80.60;9.40;98006.00;;;;5115521;28;20641;-77
2022/04/13 04:06:21;;;;;;;0.90;0.90;;;10.10;80.70;9.40;98011.00;;;;5118367;28;20208;-77
2022/04/13 04:08:47;;;;;;;1.30;1.20;;;10.00;80.50;9.40;98022.00;;;;5122171;28;20229;-77
2022/04/13 04:11:14;;;;;;;1.53;0.97;;;10.00;80.60;9.40;98009.00;;;;5118904;28;20250;-78
2022/04/13 04:13:40;;;;;;;0.80;0.80;;;10.00;81.10;9.20;98024.00;;;;5115266;28;20186;-78
2022/04/13 04:16:08;;;;;;;1.27;1.13;;;9.90;81.70;9.20;98014.00;;;;5115884;28;20205;-78
2022/04/13 04:18:35;;;;;;;0.67;0.67;;;9.80;82.00;9.00;98025.00;;;;5098275;28;20266;-77
2022/04/13 04:21:04;;;;;;;0.80;0.80;;;9.70;81.70;9.00;98013.00;;;;5115301;28;20222;-78
2022/04/13 04:23:31;;;;;;;0.80;0.80;;;9.70;82.40;9.00;98010.00;;;;5115134;28;20233;-77
2022/04/13 04:25:57;;;;;;;1.07;1.07;;;9.70;82.90;8.90;98017.00;;;;5115024;28;20684;-78
2022/04/13 04:28:26;;;;;;;2.33;1.40;;;9.70;83.40;9.00;98014.00;;;;5114852;28;20217;-77
2022/04/13 04:30:53;;;;;;;0.80;0.80;;;9.70;83.90;9.00;98018.00;;;;5114861;28;20195;-78
2022/04/13 04:33:20;;;;;;;1.77;1.67;;;9.70;84.50;9.00;98022.00;;;;5115136;28;20186;-78
2022/04/13 04:35:50;;;;;;;0.83;0.83;;;9.70;84.70;9.00;98008.00;;;;5096863;28;20210;-77
2022/04/13 04:38:16;;;;;;;0.90;0.90;;;9.70;85.10;8.90;98025.00;;;;5114971;28;20213;-78
2022/04/13 04:40:44;;;;;;;2.07;1.97;;;9.60;85.00;8.90;98024.00;;;;5114557;28;20692;-77
2022/04/13 04:43:11;;;;;;;0.70;0.70;;;9.60;85.90;9.00;98022.00;;;;5114815;28;20331;-78
2022/04/13 04:45:37;;;;;;;0.60;0.60;;;9.60;86.10;8.90;98001.00;;;;5114696;28;20231;-77
2022/04/13 04:48:05;;;;;;;0.83;0.83;;;9.60;86.00;9.00;98025.00;;;;5114586;28;20304;-77
2022/04/13 04:50:34;;;;;;;0.90;0.90;;;9.60;93.40;9.00;98004.00;;;;5114528;28;20525;-77
2022/04/13 04:53:03;;;;;;;0.90;0.90;;;9.60;89.30;9.00;98021.00;;;;5114609;28;20225;-78
2022/04/13 04:55:31;;;;;;;0.90;0.90;;;9.60;88.70;9.00;98023.00;;;;5114547;28;20272;-77
2022/04/13 04:57:57;;;;;;;2.53;2.33;;;9.60;93.20;9.00;98026.00;;;;5114834;28;20198;-78
2022/04/13 05:00:24;;;;;;;1.67;1.57;;;9.60;95.20;9.00;98032.00;;;;5114493;28;20201;-77
2022/04/13 05:02:53;;;;;;;1.17;1.17;;;9.60;94.20;9.00;98030.00;;;;5114319;28;20246;-78
2022/04/13 05:05:20;;;;;;;1.03;1.03;;;9.60;87.80;9.10;98026.00;;;;5114476;28;20273;-75
2022/04/13 05:07:48;;;;;;;0.93;0.93;;;9.70;89.10;9.10;97992.00;;;;5114302;28;20264;-77
2022/04/13 05:10:16;;;;;;;1.07;1.07;;;9.70;87.40;9.20;98029.00;;;;5114257;28;20533;-77
2022/04/13 05:12:44;;;;;;;0.63;0.63;;;9.80;87.90;9.10;98031.00;;;;5114196;28;20717;-77
2022/04/13 05:15:13;;;;;;;2.20;1.37;;;9.70;90.30;9.10;98039.00;;;;5114189;28;20218;-78
2022/04/13 05:17:40;;;;;;;2.53;1.80;;;9.70;93.80;9.10;98035.00;;;;5114424;28;20202;-77
2022/04/13 05:20:08;;;;;;;1.50;1.40;;;9.70;92.40;9.10;98027.00;;;;5114344;28;20210;-78
2022/04/13 05:22:35;;;;;;;1.17;1.17;;;9.80;92.70;9.20;98039.00;;;;5114429;28;20297;-78
2022/04/13 05:25:05;;;;;;;1.03;1.03;;;9.80;94.60;9.20;98034.00;;;;5114357;28;20241;-78
2022/04/13 05:27:32;;;;;;;1.63;1.53;;;9.80;93.90;9.30;98038.00;;;;5114016;28;20218;-77
2022/04/13 05:29:58;;;;;;;1.17;1.17;;;9.90;93.90;9.30;98032.00;;;;5114788;28;20224;-78
2022/04/13 05:32:25;;;;;;;2.63;2.17;;;9.90;93.50;9.40;98042.00;;;;5114857;28;20198;-77
2022/04/13 05:34:59;;;;;;;2.40;2.20;;;10.00;93.30;9.50;98041.00;;;;5096456;28;20681;-79
2022/04/13 05:37:26;;;;;;;1.30;1.23;;;10.00;92.90;9.50;98039.00;;;;5114664;28;20513;-77
2022/04/13 05:39:52;;;;;;;1.00;1.00;;;10.10;92.70;9.50;98048.00;;;;5118889;28;20197;-77
2022/04/13 05:42:23;;;;;;;0.73;0.73;;;10.10;92.20;9.60;98046.00;;;;5120814;28;20294;-77
2022/04/13 05:44:49;;;;;;;5.27;1.80;;;10.20;92.00;9.60;98053.00;;;;5116871;28;20224;-78
2022/04/13 05:47:22;;;;;;;0.83;0.83;;;10.20;91.80;9.70;98054.00;;;;5123972;28;20263;-79
2022/04/13 05:49:49;;;;;;;0.53;0.53;;;10.30;91.10;9.70;98056.00;;;;5129403;28;20251;-78
2022/04/13 05:52:18;;;;;;;1.50;1.40;;;10.30;90.30;9.80;98058.00;;;;5121067;28;20194;-79
2022/04/13 05:54:44;;;;;;;1.10;1.10;;;10.40;90.10;9.90;98057.00;;;;5116817;28;20261;-78
2022/04/13 05:57:13;;;;;;;1.43;1.40;;;10.40;89.70;9.90;98063.00;;;;5098322;28;20267;-79
2022/04/13 05:59:42;;;;;;;0.93;0.90;;;10.50;89.30;10.00;98073.00;;;;5114489;28;20206;-78
2022/04/13 06:02:09;;;;;;;1.87;1.77;;;10.60;88.80;10.10;98059.00;;;;5114311;28;20294;-79
2022/04/13 06:04:36;;;;;;;3.50;1.87;;;10.60;88.60;10.20;98073.00;;;;5113772;28;20222;-78
2022/04/13 06:07:02;;;;;;;0.70;0.70;;;10.70;88.60;10.30;98076.00;;;;5113628;28;20545;-78
2022/04/13 06:09:29;;;;;;;1.90;1.80;;;10.80;88.40;10.40;98077.00;;;;5113546;28;20292;-77
2022/04/13 06:11:56;;;;;;;1.07;1.07;;;10.90;88.10;10.50;98077.00;;;;5113580;28;20224;-77
2022/04/13 06:14:22;;;;;;;7.20;2.07;;;11.00;88.30;10.60;98074.00;;;;5113476;28;20296;-76
2022/04/13 06:16:49;;;;;;;0.90;0.90;;;11.20;88.20;10.70;98075.00;;;;5098967;28;20222;-77
2022/04/13 06:19:16;;;;;;;1.73;1.63;;;11.30;88.50;10.80;98075.00;;;;5116975;28;20237;-77
2022/04/13 06:21:42;;;;;;;0.90;0.90;;;11.40;88.20;11.00;98084.00;;;;5099373;28;20214;-78
2022/04/13 06:24:12;;;;;;;0.90;0.90;;;11.50;83.60;11.10;98084.00;;;;5099260;28;20652;-78
2022/04/13 06:26:38;;;;;;;1.17;1.07;;;11.60;83.40;11.20;98086.00;;;;5099994;28;20257;-78
2022/04/13 06:29:06;;;;;;;1.40;1.30;;;11.80;82.60;11.40;98087.00;;;;5122827;28;20210;-79
2022/04/13 06:31:32;;;;;;;0.90;0.90;;;11.90;82.10;11.40;98093.00;;;;5118778;28;20263;-80
2022/04/13 06:34:00;;;;;;;0.70;0.70;;;12.00;80.70;11.60;98084.00;;;;5116968;28;20232;-74
2022/04/13 06:36:26;;;;;;;1.30;1.20;;;12.10;80.30;11.70;98090.00;;;;5116571;28;20645;-74
2022/04/13 06:38:54;;;;;;;1.33;1.33;;;12.20;79.30;11.90;98094.00;;;;5116538;28;20219;-74
2022/04/13 06:41:21;;;;;;;1.00;1.00;;;12.40;78.30;12.00;98087.00;;;;5116638;28;20194;-75
2022/04/13 06:43:48;;;;;;;0.60;0.60;;;12.50;77.10;12.20;98096.00;;;;5116739;28;20319;-74
2022/04/13 06:46:17;;;;;;;0.50;0.50;;;12.60;76.10;12.30;98099.00;;;;5116816;28;20546;-76
2022/04/13 06:48:43;;;;;;;2.17;1.97;;;12.80;76.00;12.40;98102.00;;;;5099224;28;20288;-74
2022/04/13 06:51:13;;;;;;;2.23;0.90;;;12.90;74.40;12.60;98106.00;;;;5116562;28;20281;-74
2022/04/13 06:53:40;;;;;;;0.90;0.90;;;13.00;72.90;12.70;98095.00;;;;5098673;28;20274;-74
2022/04/13 06:56:06;;;;;;;0.80;0.80;;;13.20;71.40;12.70;98100.00;;;;5116542;28;20637;-75
2022/04/13 06:58:35;;;;;;;1.07;1.07;;;13.30;69.70;12.90;98106.00;;;;5098292;28;20209;-74
2022/04/13 07:01:02;;;;;;;0.90;0.90;;;13.40;68.80;13.00;98112.00;;;;5098370;28;20293;-73
2022/04/13 07:03:29;;;;;;;1.00;1.00;;;13.50;67.80;13.20;98106.00;;;;5116211;28;20228;-74
2022/04/13 07:05:55;;;;;;;0.90;0.90;;;13.60;67.10;13.20;98114.00;;;;5116065;28;20225;-74
2022/04/13 07:08:23;;;;;;;0.53;0.53;;;13.70;66.00;13.30;98110.00;;;;5098303;28;20206;-73
2022/04/13 07:10:51;;;;;;;1.13;1.13;;;13.90;66.10;13.50;98114.00;;;;5116174;28;20274;-74
2022/04/13 07:13:20;;;;;;;1.13;1.13;;;14.00;65.50;13.60;98113.00;;;;5115941;28;20217;-74
2022/04/13 07:15:49;;;;;;;0.60;0.60;;;14.00;65.90;13.70;98113.00;;;;5116081;28;20548;-74
2022/04/13 07:18:18;;;;;;;2.50;2.17;;;14.20;66.10;13.80;98105.00;;;;5116204;28;20346;-76
2022/04/13 07:20:47;;;;;;;1.20;1.20;;;14.30;65.60;13.90;98110.00;;;;5115976;28;20263;-75
2022/04/13 07:23:16;;;;;;;1.07;0.97;;;14.40;64.90;14.00;98118.00;;;;5115846;28;20214;-74
2022/04/13 07:25:43;;;;;;;1.20;1.20;;;14.50;63.80;14.10;98121.00;;;;5097679;28;20241;-75
2022/04/13 07:28:10;;;;;;;0.97;0.97;;;14.60;63.70;14.20;98123.00;;;;5115048;28;20290;-76
2022/04/13 07:30:37;;;;;;;1.10;1.10;;;14.70;64.10;14.30;98125.00;;;;5115803;28;20583;-76
2022/04/13 07:33:03;;;;;;;1.40;1.30;;;14.80;63.50;14.50;98118.00;;;;5115734;28;20217;-75
2022/04/13 07:35:33;;;;;;;1.10;1.00;;;15.00;62.50;14.60;98124.00;;;;5115694;28;20189;-74
2022/04/13 07:37:59;;;;;;;0.63;0.63;;;15.00;61.00;14.70;98128.00;;;;5115649;28;20293;-74
2022/04/13 07:40:26;;;;;;;0.90;0.90;;;15.10;60.70;14.80;98117.00;;;;5097987;28;20263;-76
2022/04/13 07:42:53;;;;;;;0.90;0.90;;;15.30;59.90;14.90;98122.00;;;;5115661;28;20285;-73
2022/04/13 07:45:19;;;;;;;1.67;1.57;;;15.40;59.50;15.00;98131.00;;;;5115502;28;20304;-74
2022/04/13 07:47:46;;;;;;;0.80;0.80;;;15.50;58.90;15.10;98132.00;;;;5115580;28;20202;-74
2022/04/13 07:50:13;;;;;;;15.67;1.57;;;15.60;58.20;15.20;98119.00;;;;5115561;28;20300;-74
2022/04/13 07:52:42;;;;;;;0.70;0.70;;;15.70;56.40;15.30;98137.00;;;;5115600;28;20203;-75
2022/04/13 07:55:10;;;;;;;1.23;1.23;;;15.80;56.50;15.50;98129.00;;;;5115454;28;20281;-75
2022/04/13 07:57:37;;;;;;;0.60;0.60;;;15.90;55.90;15.50;98136.00;;;;5115317;28;20306;-75
2022/04/13 08:00:09;;;;;;;0.83;0.83;;;16.00;55.60;15.60;98135.00;;;;5115602;28;20225;-74
2022/04/13 08:02:36;;;;;;;1.30;1.30;;;16.10;55.00;15.70;98132.00;;;;5097384;28;20201;-75
2022/04/13 08:05:03;;;;;;;1.23;1.17;;;16.20;54.40;15.90;98138.00;;;;5115060;28;20232;-75
2022/04/13 08:07:30;;;;;;;2.30;1.40;;;16.30;54.30;16.00;98139.00;;;;5115406;28;20194;-76
2022/04/13 08:09:56;;;;;;;0.80;0.80;;;16.40;54.20;16.10;98147.00;;;;5115289;28;20290;-76
2022/04/13 08:12:27;;;;;;;0.70;0.70;;;16.60;53.20;16.20;98155.00;;;;5115395;28;20519;-77
2022/04/13 08:14:54;;;;;;;1.20;1.10;;;16.70;52.30;16.30;98140.00;;;;5097083;28;20233;-77
2022/04/13 08:17:21;;;;;;;13.87;1.33;;;16.80;51.30;16.40;98142.00;;;;5115103;28;20214;-76
2022/04/13 08:19:50;;;;;;;2.63;1.53;;;16.80;51.40;16.50;98152.00;;;;5115064;28;20285;-76
2022/04/13 08:22:21;;;;;;;0.70;0.70;;;16.90;51.10;16.70;98156.00;;;;5115050;28;20202;-75
2022/04/13 08:24:48;;;;;;;1.13;1.13;;;17.10;50.60;16.80;98157.00;;;;5114879;28;20309;-75
2022/04/13 08:27:14;;;;;;;0.97;0.97;;;17.20;49.20;16.70;98152.00;;;;5114865;28;20342;-75
2022/04/13 08:29:41;;;;;;;0.80;0.80;;;17.20;46.70;16.90;98157.00;;;;5096829;28;20676;-75
2022/04/13 08:32:10;;;;;;;1.70;1.10;;;17.30;46.60;16.90;98156.00;;;;5114872;28;20208;-75
2022/04/13 08:34:37;;;;;;;1.53;1.20;;;17.40;47.10;17.10;98163.00;;;;5114893;28;20707;-74
2022/04/13 08:37:04;;;;;;;2.30;1.17;;;17.50;46.70;17.20;98156.00;;;;5114794;28;20218;-75
2022/04/13 08:39:30;;;;;;;0.80;0.80;;;17.70;44.90;17.30;98166.00;;;;5114373;28;20190;-75
2022/04/13 08:42:06;;;;;;;1.17;1.13;;;17.70;42.10;17.50;98161.00;;;;5114718;28;20335;-75
2022/04/13 08:44:49;;;;;;;0.60;0.60;;;17.80;37.90;17.60;98170.00;;;;5114677;28;20221;-76
2022/04/13 08:47:19;;;;;;;0.50;0.50;;;18.00;37.10;17.70;98140.00;;;;5115821;28;20505;-75
2022/04/13 08:49:49;;;;;;;0.67;0.67;;;18.10;37.00;18.00;98164.00;;;;5115882;28;20218;-75
2022/04/13 08:52:20;;;;;;;1.03;0.83;;;18.20;35.70;17.90;98170.00;;;;5115419;28;20625;-74
2022/04/13 08:55:03;;;;;;;0.70;0.70;;;18.30;35.40;18.00;98160.00;;;;5098653;28;20284;-74
2022/04/13 08:57:35;;;;;;;0.83;0.83;;;18.40;36.00;18.00;98162.00;;;;5114616;28;20198;-76
2022/04/13 09:00:09;;;;;;;0.50;0.50;;;18.40;35.40;18.00;98171.00;;;;5114410;28;20201;-75
2022/04/13 09:03:18;;;;;;;0.60;0.60;;;18.50;36.20;18.20;98170.00;;;;5114467;28;20631;-79
2022/04/13 09:05:50;;;;;;;0.60;0.60;;;18.60;35.20;18.20;98167.00;;;;5113814;28;20194;-77
2022/04/13 09:08:20;;;;;;;0.40;0.40;;;;;18.30;98171.00;;;;5114350;28;20306;-78
2022/04/13 09:10:49;;;;;;;3.73;1.40;;;18.60;35.20;18.30;98171.00;;;;5114367;28;20206;-76
2022/04/13 09:13:18;;;;;;;1.20;1.10;;;18.70;34.20;18.40;98168.00;;;;5114154;28;20236;-77
2022/04/13 09:15:45;;;;;;;0.73;0.73;;;18.80;34.50;18.60;98166.00;;;;5114282;28;20217;-76
2022/04/13 09:18:11;;;;;;;0.93;0.93;;;18.90;34.30;18.60;98174.00;;;;5114081;28;20208;-75
2022/04/13 09:20:41;;;;;;;0.73;0.73;;;19.00;34.00;18.60;98176.00;;;;5114041;28;20316;-74
2022/04/13 09:23:08;;;;;;;0.80;0.80;;;19.00;33.60;18.70;98166.00;;;;5096200;28;20579;-74
2022/04/13 09:25:37;;;;;;;1.00;1.00;;;19.10;33.80;18.90;98169.00;;;;5113952;28;20264;-75
2022/04/13 09:28:04;;;;;;;5.30;1.20;;;19.20;32.90;19.00;98162.00;;;;5095964;28;20246;-75
2022/04/13 09:30:33;;;;;;;0.50;0.50;;;19.30;33.50;19.00;98171.00;;;;5113970;28;20221;-75
2022/04/13 09:33:02;;;;;;;0.60;0.60;;;19.40;32.60;19.10;98168.00;;;;5114033;28;20190;-74
2022/04/13 09:35:32;;;;;;;0.53;0.53;;;19.50;33.40;19.20;98179.00;;;;5113911;28;20198;-74
2022/04/13 09:38:03;;;;;;;0.70;0.70;;;19.60;33.40;19.20;98175.00;;;;5095833;28;20197;-76
2022/04/13 09:40:38;;;;;;;0.53;0.53;;;19.60;32.30;19.40;98173.00;;;;5113920;28;20225;-75
2022/04/13 09:43:11;;;;;;;0.47;0.47;;;19.70;31.90;19.30;98179.00;;;;5114015;28;20197;-75
2022/04/13 09:45:42;;;;;;;0.50;0.50;;;19.70;31.00;19.30;98173.00;;;;5113825;28;20214;-74
2022/04/13 09:48:11;;;;;;;1.20;1.20;;;19.80;29.80;19.40;98173.00;;;;5114054;28;20266;-76
2022/04/13 09:50:39;;;;;;;0.43;0.43;;;19.80;29.90;19.50;98183.00;;;;5115656;28;20198;-76
2022/04/13 09:53:07;;;;;;;0.60;0.60;;;19.90;31.40;19.60;98173.00;;;;5117482;28;20229;-77
2022/04/13 09:55:38;;;;;;;0.80;0.80;;;20.00;30.80;19.50;98187.00;;;;5099423;28;20193;-77
2022/04/13 09:58:08;;;;;;;4.90;1.10;;;19.90;31.20;19.60;98177.00;;;;5117460;28;20198;-76
2022/04/13 10:00:36;;;;;;;0.50;0.50;;;20.00;30.60;19.70;98184.00;;;;5117213;28;20249;-74
2022/04/13 10:03:14;;;;;;;0.70;0.70;;;20.10;30.50;19.80;98172.00;;;;5117184;28;20649;-75
2022/04/13 10:05:45;;;;;;;1.03;0.83;;;20.20;31.40;19.80;98169.00;;;;5099127;28;20277;-74
2022/04/13 10:08:13;;;;;;;0.67;0.67;;;20.20;30.80;19.90;98162.00;;;;5117208;28;20194;-76
2022/04/13 10:10:43;;;;;;;0.50;0.50;;;20.30;29.90;20.10;98164.00;;;;5117213;28;20194;-75
2022/04/13 10:13:11;;;;;;;0.50;0.50;;;20.40;32.30;20.30;98158.00;;;;5117378;28;20218;-75
2022/04/13 10:15:38;;;;;;;0.80;0.80;;;20.60;30.90;20.40;98164.00;;;;5101080;28;20194;-75
2022/04/13 10:18:05;;;;;;;1.00;0.93;;;20.70;30.60;20.70;98166.00;;;;5104429;28;20208;-75
2022/04/13 10:20:47;;;;;;;0.70;0.70;;;21.00;30.70;20.80;98164.00;;;;5119310;28;20204;-75
2022/04/13 10:23:15;;;;;;;0.50;0.50;;;21.10;31.10;20.90;98163.00;;;;5117595;28;20197;-76
2022/04/13 10:25:44;;;;;;;0.60;0.60;;;21.20;31.70;20.90;98165.00;;;;5117114;28;20226;-74
2022/04/13 10:28:12;;;;;;;0.63;0.63;;;21.30;30.10;21.00;98167.00;;;;5117317;28;20718;-75
2022/04/13 10:30:41;;;;;;;0.50;0.50;;;21.30;30.70;21.20;98160.00;;;;5117084;28;20196;-75
2022/04/13 10:33:10;;;;;;;0.87;0.83;;;21.50;28.60;21.20;98162.00;;;;5117186;28;20217;-74
2022/04/13 10:35:39;;;;;;;0.50;0.50;;;21.50;29.30;21.40;98162.00;;;;5116830;28;20198;-74
2022/04/13 10:38:06;;;;;;;0.50;0.50;;;21.80;30.10;21.50;98149.00;;;;5117755;28;20236;-81
2022/04/13 10:40:35;;;;;;;0.60;0.60;;;21.90;31.50;21.70;98162.00;;;;5117369;28;20226;-80
2022/04/13 10:43:05;;;;;;;0.50;0.50;;;22.00;29.00;21.80;98156.00;;;;5116977;28;20546;-79
2022/04/13 10:45:34;;;;;;;0.33;0.33;;;22.20;30.00;22.10;98160.00;;;;5116780;28;20225;-76
2022/04/13 10:48:05;;;;;;;0.55;0.55;;;22.30;30.50;22.40;98165.00;;;;5117001;28;20222;-77
2022/04/13 10:50:44;;;;;;;1.03;1.03;;;22.60;29.70;22.40;98160.00;;;;5116963;28;20259;-76
2022/04/13 10:53:30;;;;;;;0.63;0.63;;;22.70;29.00;22.40;98138.00;;;;5098653;28;20198;-76
2022/04/13 10:56:02;;;;;;;1.10;1.00;;;22.70;29.50;22.50;98164.00;;;;5116653;28;20724;-78
2022/04/13 10:58:48;;;;;;;1.48;0.73;;;22.80;28.80;22.40;98163.00;;;;5119252;28;20206;-76
2022/04/13 11:01:21;;;;;;;0.65;0.65;;;22.80;28.30;22.60;98162.00;;;;5116815;28;20208;-76